sensor_id;sensor_type;location;lat;lon;timestamp;temperature;humidity
63094;DHT22;49183;51.380;0.098;2022-09-19T00:00:44;10.70;89.10
63094;DHT22;49183;51.380;0.098;2022-09-19T00:03:12;10.70;89.00
63094;DHT22;49183;51.380;0.098;2022-09-19T00:05:40;10.80;88.80
63094;DHT22;49183;51.380;0.098;2022-09-19T00:08:08;10.70;88.70
63094;DHT22;49183;51.380;0.098;2022-09-19T00:10:36;10.70;88.80
63094;DHT22;49183;51.380;0.098;2022-09-19T00:13:03;10.80;88.80
63094;DHT22;49183;51.380;0.098;2022-09-19T00:15:36;10.80;88.80
63094;DHT22;49183;51.380;0.098;2022-09-19T00:18:12;10.80;88.80
63094;DHT22;49183;51.380;0.098;2022-09-19T00:20:40;10.80;88.80
63094;DHT22;49183;51.380;0.098;2022-09-19T00:23:08;10.90;88.70
63094;DHT22;49183;51.380;0.098;2022-09-19T00:26:01;10.90;88.60
63094;DHT22;49183;51.380;0.098;2022-09-19T00:28:29;11.00;88.60
63094;DHT22;49183;51.380;0.098;2022-09-19T00:30:57;11.00;88.50
63094;DHT22;49183;51.380;0.098;2022-09-19T00:33:24;11.10;88.40
63094;DHT22;49183;51.380;0.098;2022-09-19T00:36:01;11.10;88.40
63094;DHT22;49183;51.380;0.098;2022-09-19T00:38:30;11.10;88.40
63094;DHT22;49183;51.380;0.098;2022-09-19T00:40:58;11.20;88.40
63094;DHT22;49183;51.380;0.098;2022-09-19T00:43:41;11.20;88.40
63094;DHT22;49183;51.380;0.098;2022-09-19T00:46:09;11.20;88.30
63094;DHT22;49183;51.380;0.098;2022-09-19T00:48:36;11.20;88.30
63094;DHT22;49183;51.380;0.098;2022-09-19T00:51:09;11.30;88.30
63094;DHT22;49183;51.380;0.098;2022-09-19T00:53:38;11.30;88.30
63094;DHT22;49183;51.380;0.098;2022-09-19T00:56:07;11.30;88.30
63094;DHT22;49183;51.380;0.098;2022-09-19T00:58:34;11.30;88.30
63094;DHT22;49183;51.380;0.098;2022-09-19T01:01:02;11.30;88.30
63094;DHT22;49183;51.380;0.098;2022-09-19T01:03:30;11.30;88.30
63094;DHT22;49183;51.380;0.098;2022-09-19T01:16:17;11.40;88.30
63094;DHT22;49183;51.380;0.098;2022-09-19T01:18:50;11.40;88.30
63094;DHT22;49183;51.380;0.098;2022-09-19T01:21:29;11.40;88.30
63094;DHT22;49183;51.380;0.098;2022-09-19T01:29:28;11.40;88.40
63094;DHT22;49183;51.380;0.098;2022-09-19T01:31:56;11.30;88.40
63094;DHT22;49183;51.380;0.098;2022-09-19T01:34:27;11.40;88.40
63094;DHT22;49183;51.380;0.098;2022-09-19T01:39:25;11.30;88.40
63094;DHT22;49183;51.380;0.098;2022-09-19T01:41:57;11.30;88.30
63094;DHT22;49183;51.380;0.098;2022-09-19T01:44:27;11.30;88.40
63094;DHT22;49183;51.380;0.098;2022-09-19T01:47:07;11.30;88.40
63094;DHT22;49183;51.380;0.098;2022-09-19T01:49:50;11.30;88.30
63094;DHT22;49183;51.380;0.098;2022-09-19T01:55:06;11.30;88.30
63094;DHT22;49183;51.380;0.098;2022-09-19T01:57:44;11.20;88.40
63094;DHT22;49183;51.380;0.098;2022-09-19T02:00:20;11.20;88.40
63094;DHT22;49183;51.380;0.098;2022-09-19T02:07:52;11.10;88.40
63094;DHT22;49183;51.380;0.098;2022-09-19T02:10:25;11.10;88.50
63094;DHT22;49183;51.380;0.098;2022-09-19T02:12:54;11.10;88.40
63094;DHT22;49183;51.380;0.098;2022-09-19T02:15:39;11.10;88.40
63094;DHT22;49183;51.380;0.098;2022-09-19T02:18:13;11.10;88.40
63094;DHT22;49183;51.380;0.098;2022-09-19T02:20:43;11.10;88.40
63094;DHT22;49183;51.380;0.098;2022-09-19T02:25:41;11.00;88.40
63094;DHT22;49183;51.380;0.098;2022-09-19T02:28:14;11.00;88.40
63094;DHT22;49183;51.380;0.098;2022-09-19T02:30:42;11.10;88.40
63094;DHT22;49183;51.380;0.098;2022-09-19T02:33:10;11.00;88.40
63094;DHT22;49183;51.380;0.098;2022-09-19T02:38:21;11.00;88.30
63094;DHT22;49183;51.380;0.098;2022-09-19T02:43:41;11.00;88.30
63094;DHT22;49183;51.380;0.098;2022-09-19T02:46:20;10.90;88.30
63094;DHT22;49183;51.380;0.098;2022-09-19T02:48:51;10.90;88.30
63094;DHT22;49183;51.380;0.098;2022-09-19T02:51:21;10.90;88.30
63094;DHT22;49183;51.380;0.098;2022-09-19T02:53:51;10.90;88.30
63094;DHT22;49183;51.380;0.098;2022-09-19T02:56:22;10.90;88.30
63094;DHT22;49183;51.380;0.098;2022-09-19T02:59:11;10.90;88.30
63094;DHT22;49183;51.380;0.098;2022-09-19T03:01:46;10.80;88.30
63094;DHT22;49183;51.380;0.098;2022-09-19T03:04:17;10.90;88.30
63094;DHT22;49183;51.380;0.098;2022-09-19T03:07:03;10.90;88.30
63094;DHT22;49183;51.380;0.098;2022-09-19T03:09:48;10.80;88.30
63094;DHT22;49183;51.380;0.098;2022-09-19T03:12:21;10.90;88.30
63094;DHT22;49183;51.380;0.098;2022-09-19T03:14:50;10.80;88.30
63094;DHT22;49183;51.380;0.098;2022-09-19T03:17:45;10.80;88.30
63094;DHT22;49183;51.380;0.098;2022-09-19T03:20:12;10.80;88.30
63094;DHT22;49183;51.380;0.098;2022-09-19T03:22:42;10.80;88.30
63094;DHT22;49183;51.380;0.098;2022-09-19T03:25:12;10.80;88.30
63094;DHT22;49183;51.380;0.098;2022-09-19T03:27:41;10.80;88.30
63094;DHT22;49183;51.380;0.098;2022-09-19T03:30:11;10.80;88.30
63094;DHT22;49183;51.380;0.098;2022-09-19T03:32:44;10.80;88.30
63094;DHT22;49183;51.380;0.098;2022-09-19T03:35:11;10.80;88.30
63094;DHT22;49183;51.380;0.098;2022-09-19T03:37:44;10.80;88.30
63094;DHT22;49183;51.380;0.098;2022-09-19T03:40:11;10.80;88.30
63094;DHT22;49183;51.380;0.098;2022-09-19T03:42:40;10.80;88.30
63094;DHT22;49183;51.380;0.098;2022-09-19T03:45:08;10.80;88.30
63094;DHT22;49183;51.380;0.098;2022-09-19T03:47:38;10.80;88.30
63094;DHT22;49183;51.380;0.098;2022-09-19T03:50:06;10.80;88.30
63094;DHT22;49183;51.380;0.098;2022-09-19T03:52:42;10.80;88.30
63094;DHT22;49183;51.380;0.098;2022-09-19T03:55:17;10.80;88.40
63094;DHT22;49183;51.380;0.098;2022-09-19T03:57:46;10.80;88.30
63094;DHT22;49183;51.380;0.098;2022-09-19T04:00:16;10.80;88.30
63094;DHT22;49183;51.380;0.098;2022-09-19T04:02:44;10.80;88.30
63094;DHT22;49183;51.380;0.098;2022-09-19T04:05:13;10.80;88.30
63094;DHT22;49183;51.380;0.098;2022-09-19T04:07:41;10.80;88.30
63094;DHT22;49183;51.380;0.098;2022-09-19T04:10:09;10.90;88.30
63094;DHT22;49183;51.380;0.098;2022-09-19T04:12:39;10.90;88.30
63094;DHT22;49183;51.380;0.098;2022-09-19T04:15:07;10.90;88.30
63094;DHT22;49183;51.380;0.098;2022-09-19T04:17:36;10.90;88.30
63094;DHT22;49183;51.380;0.098;2022-09-19T04:20:12;10.90;88.30
63094;DHT22;49183;51.380;0.098;2022-09-19T04:23:01;10.90;88.30
63094;DHT22;49183;51.380;0.098;2022-09-19T04:25:53;10.90;88.30
63094;DHT22;49183;51.380;0.098;2022-09-19T04:28:32;10.90;88.40
63094;DHT22;49183;51.380;0.098;2022-09-19T04:30:59;10.90;88.40
63094;DHT22;49183;51.380;0.098;2022-09-19T04:33:29;11.00;88.50
63094;DHT22;49183;51.380;0.098;2022-09-19T04:35:58;11.00;88.50
63094;DHT22;49183;51.380;0.098;2022-09-19T04:38:30;11.00;88.50
63094;DHT22;49183;51.380;0.098;2022-09-19T04:40:58;11.00;88.50
63094;DHT22;49183;51.380;0.098;2022-09-19T04:43:28;11.00;88.50
63094;DHT22;49183;51.380;0.098;2022-09-19T04:46:14;11.00;88.50
63094;DHT22;49183;51.380;0.098;2022-09-19T04:48:47;11.00;88.50
63094;DHT22;49183;51.380;0.098;2022-09-19T04:51:19;11.00;88.60
63094;DHT22;49183;51.380;0.098;2022-09-19T04:53:48;11.00;88.60
63094;DHT22;49183;51.380;0.098;2022-09-19T04:56:15;11.00;88.60
63094;DHT22;49183;51.380;0.098;2022-09-19T04:58:44;10.90;88.60
63094;DHT22;49183;51.380;0.098;2022-09-19T05:01:12;10.90;88.70
63094;DHT22;49183;51.380;0.098;2022-09-19T05:03:41;10.90;88.70
63094;DHT22;49183;51.380;0.098;2022-09-19T05:06:12;10.90;88.80
63094;DHT22;49183;51.380;0.098;2022-09-19T05:08:41;10.90;88.80
63094;DHT22;49183;51.380;0.098;2022-09-19T05:11:18;10.80;88.90
63094;DHT22;49183;51.380;0.098;2022-09-19T05:13:49;10.80;88.90
63094;DHT22;49183;51.380;0.098;2022-09-19T05:16:23;10.80;89.00
63094;DHT22;49183;51.380;0.098;2022-09-19T05:19:02;10.80;89.10
63094;DHT22;49183;51.380;0.098;2022-09-19T05:21:30;10.70;89.10
63094;DHT22;49183;51.380;0.098;2022-09-19T05:23:59;10.60;89.20
63094;DHT22;49183;51.380;0.098;2022-09-19T05:26:27;10.60;89.30
63094;DHT22;49183;51.380;0.098;2022-09-19T05:28:59;10.50;89.40
63094;DHT22;49183;51.380;0.098;2022-09-19T05:31:34;10.50;89.50
63094;DHT22;49183;51.380;0.098;2022-09-19T05:34:34;10.40;89.60
63094;DHT22;49183;51.380;0.098;2022-09-19T05:37:02;10.40;89.70
63094;DHT22;49183;51.380;0.098;2022-09-19T05:39:48;10.30;89.70
63094;DHT22;49183;51.380;0.098;2022-09-19T05:42:39;10.30;89.80
63094;DHT22;49183;51.380;0.098;2022-09-19T05:45:07;10.30;89.90
63094;DHT22;49183;51.380;0.098;2022-09-19T05:47:37;10.30;89.90
63094;DHT22;49183;51.380;0.098;2022-09-19T05:50:09;10.40;89.90
63094;DHT22;49183;51.380;0.098;2022-09-19T05:52:37;10.40;89.80
63094;DHT22;49183;51.380;0.098;2022-09-19T05:55:24;10.50;89.70
63094;DHT22;49183;51.380;0.098;2022-09-19T05:58:15;10.50;89.70
63094;DHT22;49183;51.380;0.098;2022-09-19T06:00:44;10.50;89.70
63094;DHT22;49183;51.380;0.098;2022-09-19T06:03:13;10.60;89.70
63094;DHT22;49183;51.380;0.098;2022-09-19T06:05:46;10.60;89.60
63094;DHT22;49183;51.380;0.098;2022-09-19T06:08:16;10.70;89.60
63094;DHT22;49183;51.380;0.098;2022-09-19T06:10:45;10.80;89.60
63094;DHT22;49183;51.380;0.098;2022-09-19T06:13:21;10.80;89.50
63094;DHT22;49183;51.380;0.098;2022-09-19T06:15:49;10.80;89.40
63094;DHT22;49183;51.380;0.098;2022-09-19T06:18:36;10.80;89.40
63094;DHT22;49183;51.380;0.098;2022-09-19T06:21:08;10.90;89.40
63094;DHT22;49183;51.380;0.098;2022-09-19T06:23:39;10.90;89.30
63094;DHT22;49183;51.380;0.098;2022-09-19T06:26:08;11.10;89.30
63094;DHT22;49183;51.380;0.098;2022-09-19T06:28:36;11.10;89.30
63094;DHT22;49183;51.380;0.098;2022-09-19T06:31:08;11.10;89.20
63094;DHT22;49183;51.380;0.098;2022-09-19T06:33:52;11.20;89.20
63094;DHT22;49183;51.380;0.098;2022-09-19T06:36:24;11.30;89.20
63094;DHT22;49183;51.380;0.098;2022-09-19T06:38:52;11.30;89.20
63094;DHT22;49183;51.380;0.098;2022-09-19T06:41:38;11.40;89.10
63094;DHT22;49183;51.380;0.098;2022-09-19T06:44:19;11.40;89.10
63094;DHT22;49183;51.380;0.098;2022-09-19T06:47:09;11.50;89.10
63094;DHT22;49183;51.380;0.098;2022-09-19T06:49:52;11.50;89.00
63094;DHT22;49183;51.380;0.098;2022-09-19T06:52:24;11.60;89.00
63094;DHT22;49183;51.380;0.098;2022-09-19T06:54:53;11.70;89.00
63094;DHT22;49183;51.380;0.098;2022-09-19T06:57:20;11.80;89.00
63094;DHT22;49183;51.380;0.098;2022-09-19T06:59:48;11.80;88.90
63094;DHT22;49183;51.380;0.098;2022-09-19T07:02:16;11.90;88.90
63094;DHT22;49183;51.380;0.098;2022-09-19T07:04:43;11.90;88.90
63094;DHT22;49183;51.380;0.098;2022-09-19T07:07:22;12.00;88.80
63094;DHT22;49183;51.380;0.098;2022-09-19T07:09:56;12.10;88.80
63094;DHT22;49183;51.380;0.098;2022-09-19T07:12:23;12.20;88.80
63094;DHT22;49183;51.380;0.098;2022-09-19T07:14:57;12.30;88.70
63094;DHT22;49183;51.380;0.098;2022-09-19T07:17:26;12.30;88.60
63094;DHT22;49183;51.380;0.098;2022-09-19T07:19:54;12.40;88.60
63094;DHT22;49183;51.380;0.098;2022-09-19T07:22:42;12.40;88.50
63094;DHT22;49183;51.380;0.098;2022-09-19T07:25:52;12.50;88.50
63094;DHT22;49183;51.380;0.098;2022-09-19T07:28:22;12.60;88.50
63094;DHT22;49183;51.380;0.098;2022-09-19T07:30:52;12.60;88.50
63094;DHT22;49183;51.380;0.098;2022-09-19T07:33:22;12.70;88.50
63094;DHT22;49183;51.380;0.098;2022-09-19T07:35:53;12.80;88.40
63094;DHT22;49183;51.380;0.098;2022-09-19T07:38:21;12.80;88.40
63094;DHT22;49183;51.380;0.098;2022-09-19T07:41:06;12.90;88.30
63094;DHT22;49183;51.380;0.098;2022-09-19T07:44:00;13.00;88.30
63094;DHT22;49183;51.380;0.098;2022-09-19T07:46:47;13.10;88.20
63094;DHT22;49183;51.380;0.098;2022-09-19T07:50:00;13.30;88.20
63094;DHT22;49183;51.380;0.098;2022-09-19T07:52:41;13.40;88.00
63094;DHT22;49183;51.380;0.098;2022-09-19T07:55:13;13.50;88.00
63094;DHT22;49183;51.380;0.098;2022-09-19T07:57:54;13.50;87.90
63094;DHT22;49183;51.380;0.098;2022-09-19T08:00:33;13.60;87.80
63094;DHT22;49183;51.380;0.098;2022-09-19T08:03:04;13.70;87.70
63094;DHT22;49183;51.380;0.098;2022-09-19T08:05:33;13.80;87.60
63094;DHT22;49183;51.380;0.098;2022-09-19T08:08:01;13.80;87.60
63094;DHT22;49183;51.380;0.098;2022-09-19T08:10:30;13.80;87.50
63094;DHT22;49183;51.380;0.098;2022-09-19T08:13:02;13.80;87.40
63094;DHT22;49183;51.380;0.098;2022-09-19T08:15:31;13.90;87.30
63094;DHT22;49183;51.380;0.098;2022-09-19T08:18:09;13.90;87.20
63094;DHT22;49183;51.380;0.098;2022-09-19T08:20:40;14.00;87.20
63094;DHT22;49183;51.380;0.098;2022-09-19T08:23:09;14.00;87.20
63094;DHT22;49183;51.380;0.098;2022-09-19T08:25:40;14.10;87.10
63094;DHT22;49183;51.380;0.098;2022-09-19T08:28:12;14.00;87.10
63094;DHT22;49183;51.380;0.098;2022-09-19T08:30:39;14.00;87.10
63094;DHT22;49183;51.380;0.098;2022-09-19T08:33:09;14.00;87.10
63094;DHT22;49183;51.380;0.098;2022-09-19T08:35:40;14.00;87.20
63094;DHT22;49183;51.380;0.098;2022-09-19T08:38:18;14.00;87.30
63094;DHT22;49183;51.380;0.098;2022-09-19T08:46:13;14.30;87.20
63094;DHT22;49183;51.380;0.098;2022-09-19T08:56:48;14.30;86.60
63094;DHT22;49183;51.380;0.098;2022-09-19T08:59:17;14.40;86.70
63094;DHT22;49183;51.380;0.098;2022-09-19T09:01:55;14.40;86.60
63094;DHT22;49183;51.380;0.098;2022-09-19T09:04:59;14.50;86.50
63094;DHT22;49183;51.380;0.098;2022-09-19T09:13:10;14.80;85.80
63094;DHT22;49183;51.380;0.098;2022-09-19T09:15:54;14.80;85.60
63094;DHT22;49183;51.380;0.098;2022-09-19T09:23:33;15.10;85.00
63094;DHT22;49183;51.380;0.098;2022-09-19T09:26:23;15.20;84.80
63094;DHT22;49183;51.380;0.098;2022-09-19T09:29:17;15.30;84.50
63094;DHT22;49183;51.380;0.098;2022-09-19T09:37:04;15.40;83.30
63094;DHT22;49183;51.380;0.098;2022-09-19T09:39:37;15.40;83.00
63094;DHT22;49183;51.380;0.098;2022-09-19T09:43:08;15.40;82.70
63094;DHT22;49183;51.380;0.098;2022-09-19T09:45:22;15.30;82.80
63094;DHT22;49183;51.380;0.098;2022-09-19T09:53:20;15.50;83.00
63094;DHT22;49183;51.380;0.098;2022-09-19T09:56:13;15.70;82.90
63094;DHT22;49183;51.380;0.098;2022-09-19T09:58:50;15.80;82.60
63094;DHT22;49183;51.380;0.098;2022-09-19T10:06:58;15.80;81.30
63094;DHT22;49183;51.380;0.098;2022-09-19T10:09:32;15.70;81.40
63094;DHT22;49183;51.380;0.098;2022-09-19T10:12:04;15.60;81.80
63094;DHT22;49183;51.380;0.098;2022-09-19T10:14:57;15.50;82.30
63094;DHT22;49183;51.380;0.098;2022-09-19T10:17:40;15.50;82.60
63094;DHT22;49183;51.380;0.098;2022-09-19T10:20:16;15.40;82.60
63094;DHT22;49183;51.380;0.098;2022-09-19T10:22:47;15.30;82.90
63094;DHT22;49183;51.380;0.098;2022-09-19T10:25:17;15.10;83.30
63094;DHT22;49183;51.380;0.098;2022-09-19T10:27:46;15.00;83.70
63094;DHT22;49183;51.380;0.098;2022-09-19T10:30:24;14.90;84.00
63094;DHT22;49183;51.380;0.098;2022-09-19T10:32:55;15.00;84.20
63094;DHT22;49183;51.380;0.098;2022-09-19T10:35:38;15.00;84.00
63094;DHT22;49183;51.380;0.098;2022-09-19T10:38:16;15.00;84.20
63094;DHT22;49183;51.380;0.098;2022-09-19T10:43:50;15.30;83.90
63094;DHT22;49183;51.380;0.098;2022-09-19T10:46:15;15.50;83.70
63094;DHT22;49183;51.380;0.098;2022-09-19T10:48:49;15.80;83.20
63094;DHT22;49183;51.380;0.098;2022-09-19T10:51:18;15.90;82.70
63094;DHT22;49183;51.380;0.098;2022-09-19T10:53:47;16.10;82.40
63094;DHT22;49183;51.380;0.098;2022-09-19T10:56:19;16.30;82.10
63094;DHT22;49183;51.380;0.098;2022-09-19T10:58:51;16.40;81.70
63094;DHT22;49183;51.380;0.098;2022-09-19T11:01:28;16.60;80.90
63094;DHT22;49183;51.380;0.098;2022-09-19T11:04:04;16.70;80.40
63094;DHT22;49183;51.380;0.098;2022-09-19T11:06:32;16.60;80.00
63094;DHT22;49183;51.380;0.098;2022-09-19T11:09:06;16.70;79.30
63094;DHT22;49183;51.380;0.098;2022-09-19T11:11:42;16.40;79.20
63094;DHT22;49183;51.380;0.098;2022-09-19T11:22:46;16.30;79.90
63094;DHT22;49183;51.380;0.098;2022-09-19T11:34:48;16.80;78.90
63094;DHT22;49183;51.380;0.098;2022-09-19T11:55:00;17.30;77.40
63094;DHT22;49183;51.380;0.098;2022-09-19T12:00:19;17.50;77.30
63094;DHT22;49183;51.380;0.098;2022-09-19T12:11:03;18.10;75.90
63094;DHT22;49183;51.380;0.098;2022-09-19T12:13:41;18.10;75.50
63094;DHT22;49183;51.380;0.098;2022-09-19T12:16:15;18.10;75.20
63094;DHT22;49183;51.380;0.098;2022-09-19T12:19:01;18.00;75.10
63094;DHT22;49183;51.380;0.098;2022-09-19T12:21:35;17.80;75.40
63094;DHT22;49183;51.380;0.098;2022-09-19T12:24:06;17.80;75.30
63094;DHT22;49183;51.380;0.098;2022-09-19T12:27:33;17.60;75.30
63094;DHT22;49183;51.380;0.098;2022-09-19T12:30:02;17.50;75.70
63094;DHT22;49183;51.380;0.098;2022-09-19T12:40:49;17.10;76.10
63094;DHT22;49183;51.380;0.098;2022-09-19T12:43:23;17.10;76.20
63094;DHT22;49183;51.380;0.098;2022-09-19T12:51:59;17.00;76.40
63094;DHT22;49183;51.380;0.098;2022-09-19T12:54:36;16.90;76.50
63094;DHT22;49183;51.380;0.098;2022-09-19T12:57:08;16.80;76.80
63094;DHT22;49183;51.380;0.098;2022-09-19T12:59:38;16.80;77.00
63094;DHT22;49183;51.380;0.098;2022-09-19T13:02:21;16.60;77.20
63094;DHT22;49183;51.380;0.098;2022-09-19T13:07:39;16.30;77.50
63094;DHT22;49183;51.380;0.098;2022-09-19T13:17:41;15.50;78.90
63094;DHT22;49183;51.380;0.098;2022-09-19T13:20:32;15.30;79.30
63094;DHT22;49183;51.380;0.098;2022-09-19T13:23:22;15.20;79.90
63094;DHT22;49183;51.380;0.098;2022-09-19T13:28:44;14.90;80.80
63094;DHT22;49183;51.380;0.098;2022-09-19T13:31:12;14.80;81.10
63094;DHT22;49183;51.380;0.098;2022-09-19T13:33:52;14.80;81.30
63094;DHT22;49183;51.380;0.098;2022-09-19T13:38:53;14.80;81.40
63094;DHT22;49183;51.380;0.098;2022-09-19T13:51:51;15.30;81.20
63094;DHT22;49183;51.380;0.098;2022-09-19T13:57:12;15.60;80.80
63094;DHT22;49183;51.380;0.098;2022-09-19T14:07:26;16.50;79.20
63094;DHT22;49183;51.380;0.098;2022-09-19T14:10:16;16.70;79.20
63094;DHT22;49183;51.380;0.098;2022-09-19T14:18:02;17.10;78.70
63094;DHT22;49183;51.380;0.098;2022-09-19T14:20:48;17.20;78.40
63094;DHT22;49183;51.380;0.098;2022-09-19T14:23:17;17.30;78.30
63094;DHT22;49183;51.380;0.098;2022-09-19T14:25:54;17.30;77.40
63094;DHT22;49183;51.380;0.098;2022-09-19T14:36:15;17.10;76.70
63094;DHT22;49183;51.380;0.098;2022-09-19T14:38:59;17.10;76.70
63094;DHT22;49183;51.380;0.098;2022-09-19T14:41:43;17.20;76.60
63094;DHT22;49183;51.380;0.098;2022-09-19T14:47:20;17.20;75.90
63094;DHT22;49183;51.380;0.098;2022-09-19T14:49:53;17.20;75.70
63094;DHT22;49183;51.380;0.098;2022-09-19T14:52:24;17.20;75.70
63094;DHT22;49183;51.380;0.098;2022-09-19T14:55:04;17.30;75.70
63094;DHT22;49183;51.380;0.098;2022-09-19T14:57:44;17.40;75.30
63094;DHT22;49183;51.380;0.098;2022-09-19T15:00:12;17.50;75.10
63094;DHT22;49183;51.380;0.098;2022-09-19T15:02:41;17.60;75.10
63094;DHT22;49183;51.380;0.098;2022-09-19T15:05:19;17.60;74.80
63094;DHT22;49183;51.380;0.098;2022-09-19T15:07:50;17.60;74.10
63094;DHT22;49183;51.380;0.098;2022-09-19T15:10:27;17.50;74.30
63094;DHT22;49183;51.380;0.098;2022-09-19T15:13:20;17.40;74.10
63094;DHT22;49183;51.380;0.098;2022-09-19T15:16:23;17.20;74.40
63094;DHT22;49183;51.380;0.098;2022-09-19T15:18:47;16.90;74.80
63094;DHT22;49183;51.380;0.098;2022-09-19T15:21:16;16.60;75.20
63094;DHT22;49183;51.380;0.098;2022-09-19T15:23:44;16.40;75.80
63094;DHT22;49183;51.380;0.098;2022-09-19T15:26:14;16.30;76.00
63094;DHT22;49183;51.380;0.098;2022-09-19T15:28:47;16.20;76.30
63094;DHT22;49183;51.380;0.098;2022-09-19T15:31:21;16.10;76.30
63094;DHT22;49183;51.380;0.098;2022-09-19T15:33:54;15.90;76.30
63094;DHT22;49183;51.380;0.098;2022-09-19T15:36:23;15.80;76.50
63094;DHT22;49183;51.380;0.098;2022-09-19T15:38:52;15.70;76.80
63094;DHT22;49183;51.380;0.098;2022-09-19T15:41:21;15.70;77.00
63094;DHT22;49183;51.380;0.098;2022-09-19T15:43:49;15.60;77.10
63094;DHT22;49183;51.380;0.098;2022-09-19T15:46:39;15.60;77.00
63094;DHT22;49183;51.380;0.098;2022-09-19T15:49:06;15.60;76.70
63094;DHT22;49183;51.380;0.098;2022-09-19T15:51:43;15.50;76.30
63094;DHT22;49183;51.380;0.098;2022-09-19T15:54:19;15.40;76.40
63094;DHT22;49183;51.380;0.098;2022-09-19T15:56:49;15.30;76.50
63094;DHT22;49183;51.380;0.098;2022-09-19T15:59:18;15.30;76.70
63094;DHT22;49183;51.380;0.098;2022-09-19T16:02:09;15.30;76.70
63094;DHT22;49183;51.380;0.098;2022-09-19T16:04:36;15.30;76.80
63094;DHT22;49183;51.380;0.098;2022-09-19T16:07:04;15.30;76.90
63094;DHT22;49183;51.380;0.098;2022-09-19T16:12:47;15.20;77.00
63094;DHT22;49183;51.380;0.098;2022-09-19T16:22:58;15.20;77.40
63094;DHT22;49183;51.380;0.098;2022-09-19T16:28:00;15.20;77.60
63094;DHT22;49183;51.380;0.098;2022-09-19T16:30:28;15.30;77.60
63094;DHT22;49183;51.380;0.098;2022-09-19T16:32:55;15.30;77.60
63094;DHT22;49183;51.380;0.098;2022-09-19T16:35:23;15.30;77.60
63094;DHT22;49183;51.380;0.098;2022-09-19T16:37:50;15.40;77.60
63094;DHT22;49183;51.380;0.098;2022-09-19T16:42:46;15.70;77.40
63094;DHT22;49183;51.380;0.098;2022-09-19T16:47:42;15.90;77.10
63094;DHT22;49183;51.380;0.098;2022-09-19T16:50:10;16.10;76.80
63094;DHT22;49183;51.380;0.098;2022-09-19T16:52:38;16.20;76.40
63094;DHT22;49183;51.380;0.098;2022-09-19T16:55:41;16.30;75.70
63094;DHT22;49183;51.380;0.098;2022-09-19T16:58:00;16.10;75.50
63094;DHT22;49183;51.380;0.098;2022-09-19T17:00:27;16.00;75.70
63094;DHT22;49183;51.380;0.098;2022-09-19T17:02:55;15.90;75.90
63094;DHT22;49183;51.380;0.098;2022-09-19T17:05:27;15.90;76.10
63094;DHT22;49183;51.380;0.098;2022-09-19T17:07:57;15.80;76.30
63094;DHT22;49183;51.380;0.098;2022-09-19T17:10:32;15.80;76.50
63094;DHT22;49183;51.380;0.098;2022-09-19T17:13:00;15.70;76.60
63094;DHT22;49183;51.380;0.098;2022-09-19T17:18:00;15.60;76.50
63094;DHT22;49183;51.380;0.098;2022-09-19T17:20:28;15.40;76.40
63094;DHT22;49183;51.380;0.098;2022-09-19T17:22:55;15.40;76.40
63094;DHT22;49183;51.380;0.098;2022-09-19T17:25:25;15.30;76.20
63094;DHT22;49183;51.380;0.098;2022-09-19T17:27:59;15.20;76.30
63094;DHT22;49183;51.380;0.098;2022-09-19T17:30:26;15.20;76.50
63094;DHT22;49183;51.380;0.098;2022-09-19T17:32:55;15.10;76.60
63094;DHT22;49183;51.380;0.098;2022-09-19T17:35:29;15.10;76.80
63094;DHT22;49183;51.380;0.098;2022-09-19T17:37:57;15.00;77.00
63094;DHT22;49183;51.380;0.098;2022-09-19T17:40:25;15.00;77.00
63094;DHT22;49183;51.380;0.098;2022-09-19T17:42:53;15.00;77.10
63094;DHT22;49183;51.380;0.098;2022-09-19T17:45:21;14.90;77.20
63094;DHT22;49183;51.380;0.098;2022-09-19T17:47:50;14.90;77.30
63094;DHT22;49183;51.380;0.098;2022-09-19T17:50:17;14.80;77.40
63094;DHT22;49183;51.380;0.098;2022-09-19T17:52:45;14.80;77.40
63094;DHT22;49183;51.380;0.098;2022-09-19T17:55:13;14.80;77.50
63094;DHT22;49183;51.380;0.098;2022-09-19T17:57:40;14.80;77.60
63094;DHT22;49183;51.380;0.098;2022-09-19T18:00:08;14.70;77.60
63094;DHT22;49183;51.380;0.098;2022-09-19T18:02:39;14.70;77.70
63094;DHT22;49183;51.380;0.098;2022-09-19T18:05:25;14.70;77.80
63094;DHT22;49183;51.380;0.098;2022-09-19T18:07:53;14.60;77.80
63094;DHT22;49183;51.380;0.098;2022-09-19T18:10:25;14.60;77.90
63094;DHT22;49183;51.380;0.098;2022-09-19T18:12:53;14.50;77.90
63094;DHT22;49183;51.380;0.098;2022-09-19T18:15:22;14.50;78.00
63094;DHT22;49183;51.380;0.098;2022-09-19T18:17:53;14.40;78.00
63094;DHT22;49183;51.380;0.098;2022-09-19T18:20:21;14.40;78.10
63094;DHT22;49183;51.380;0.098;2022-09-19T18:22:49;14.30;78.20
63094;DHT22;49183;51.380;0.098;2022-09-19T18:25:16;14.30;78.20
63094;DHT22;49183;51.380;0.098;2022-09-19T18:27:44;14.30;78.40
63094;DHT22;49183;51.380;0.098;2022-09-19T18:30:13;14.30;78.50
63094;DHT22;49183;51.380;0.098;2022-09-19T18:32:42;14.30;78.60
63094;DHT22;49183;51.380;0.098;2022-09-19T18:35:10;14.20;78.60
63094;DHT22;49183;51.380;0.098;2022-09-19T18:37:38;14.20;78.70
63094;DHT22;49183;51.380;0.098;2022-09-19T18:40:06;14.10;78.80
63094;DHT22;49183;51.380;0.098;2022-09-19T18:42:35;14.10;78.90
63094;DHT22;49183;51.380;0.098;2022-09-19T18:45:05;14.00;79.10
63094;DHT22;49183;51.380;0.098;2022-09-19T18:47:33;14.00;79.20
63094;DHT22;49183;51.380;0.098;2022-09-19T18:50:01;14.00;79.30
63094;DHT22;49183;51.380;0.098;2022-09-19T18:52:28;13.90;79.40
63094;DHT22;49183;51.380;0.098;2022-09-19T18:54:56;13.90;79.50
63094;DHT22;49183;51.380;0.098;2022-09-19T18:57:24;13.90;79.60
63094;DHT22;49183;51.380;0.098;2022-09-19T18:59:52;13.80;79.70
63094;DHT22;49183;51.380;0.098;2022-09-19T19:02:19;13.80;79.80
63094;DHT22;49183;51.380;0.098;2022-09-19T19:04:47;13.80;79.90
63094;DHT22;49183;51.380;0.098;2022-09-19T19:07:15;13.80;80.00
63094;DHT22;49183;51.380;0.098;2022-09-19T19:09:43;13.80;80.10
63094;DHT22;49183;51.380;0.098;2022-09-19T19:12:10;13.70;80.20
63094;DHT22;49183;51.380;0.098;2022-09-19T19:14:59;13.70;80.30
63094;DHT22;49183;51.380;0.098;2022-09-19T19:17:26;13.70;80.40
63094;DHT22;49183;51.380;0.098;2022-09-19T19:19:54;13.70;80.40
63094;DHT22;49183;51.380;0.098;2022-09-19T19:22:21;13.60;80.50
63094;DHT22;49183;51.380;0.098;2022-09-19T19:24:48;13.60;80.60
63094;DHT22;49183;51.380;0.098;2022-09-19T19:27:16;13.50;80.60
63094;DHT22;49183;51.380;0.098;2022-09-19T19:29:43;13.50;80.70
63094;DHT22;49183;51.380;0.098;2022-09-19T19:32:11;13.50;80.80
63094;DHT22;49183;51.380;0.098;2022-09-19T19:34:39;13.40;80.80
63094;DHT22;49183;51.380;0.098;2022-09-19T19:37:08;13.40;80.90
63094;DHT22;49183;51.380;0.098;2022-09-19T19:39:35;13.40;81.00